sensor_id;sensor_type;location;lat;lon;timestamp;pressure;altitude;pressure_sealevel;temperature;humidity
23261;BME280;11799;47.740;-3.390;2023-04-15T00:02:17;101314.00;;;7.91;100.00
23261;BME280;11799;47.740;-3.390;2023-04-15T00:04:46;101312.41;;;7.88;100.00
23261;BME280;11799;47.740;-3.390;2023-04-15T00:07:12;101315.03;;;7.88;100.00
23261;BME280;11799;47.740;-3.390;2023-04-15T00:09:40;101313.69;;;7.81;100.00
23261;BME280;11799;47.740;-3.390;2023-04-15T00:12:07;101325.91;;;7.82;100.00
23261;BME280;11799;47.740;-3.390;2023-04-15T00:14:36;101332.03;;;7.83;100.00
23261;BME280;11799;47.740;-3.390;2023-04-15T00:17:03;101346.09;;;7.82;100.00
23261;BME280;11799;47.740;-3.390;2023-04-15T00:19:29;101335.09;;;7.75;100.00
23261;BME280;11799;47.740;-3.390;2023-04-15T00:21:55;101344.84;;;7.73;100.00
23261;BME280;11799;47.740;-3.390;2023-04-15T00:24:22;101347.47;;;7.73;100.00
23261;BME280;11799;47.740;-3.390;2023-04-15T00:26:48;101346.53;;;7.74;100.00
23261;BME280;11799;47.740;-3.390;2023-04-15T00:29:13;101352.81;;;7.72;100.00
23261;BME280;11799;47.740;-3.390;2023-04-15T00:31:39;101347.91;;;7.66;100.00
23261;BME280;11799;47.740;-3.390;2023-04-15T00:34:06;101341.63;;;7.68;100.00
23261;BME280;11799;47.740;-3.390;2023-04-15T00:36:32;101356.81;;;7.63;100.00
23261;BME280;11799;47.740;-3.390;2023-04-15T00:38:58;101364.44;;;7.68;100.00
23261;BME280;11799;47.740;-3.390;2023-04-15T00:41:24;101372.69;;;7.61;100.00
23261;BME280;11799;47.740;-3.390;2023-04-15T00:43:49;101367.59;;;7.58;100.00
23261;BME280;11799;47.740;-3.390;2023-04-15T00:46:16;101370.22;;;7.58;100.00
23261;BME280;11799;47.740;-3.390;2023-04-15T00:48:43;101357.94;;;7.59;100.00
23261;BME280;11799;47.740;-3.390;2023-04-15T00:51:09;101364.28;;;7.55;100.00
23261;BME280;11799;47.740;-3.390;2023-04-15T00:53:35;101371.41;;;7.53;100.00
23261;BME280;11799;47.740;-3.390;2023-04-15T00:56:01;101378.44;;;7.52;100.00
23261;BME280;11799;47.740;-3.390;2023-04-15T00:58:26;101380.44;;;7.49;100.00
23261;BME280;11799;47.740;-3.390;2023-04-15T01:00:53;101382.22;;;7.48;100.00
23261;BME280;11799;47.740;-3.390;2023-04-15T01:03:19;101386.63;;;7.48;100.00
23261;BME280;11799;47.740;-3.390;2023-04-15T01:05:45;101378.75;;;7.48;100.00
23261;BME280;11799;47.740;-3.390;2023-04-15T01:08:11;101375.59;;;7.41;100.00
23261;BME280;11799;47.740;-3.390;2023-04-15T01:10:37;101379.84;;;7.44;100.00
23261;BME280;11799;47.740;-3.390;2023-04-15T01:13:03;101384.50;;;7.39;100.00
23261;BME280;11799;47.740;-3.390;2023-04-15T01:15:29;101383.06;;;7.33;100.00
23261;BME280;11799;47.740;-3.390;2023-04-15T01:17:58;101388.41;;;7.32;100.00
23261;BME280;11799;47.740;-3.390;2023-04-15T01:20:23;101392.72;;;7.33;100.00
23261;BME280;11799;47.740;-3.390;2023-04-15T01:22:49;101399.84;;;7.31;100.00
23261;BME280;11799;47.740;-3.390;2023-04-15T01:25:19;101397.28;;;7.29;100.00
23261;BME280;11799;47.740;-3.390;2023-04-15T01:27:47;101400.69;;;7.31;100.00
23261;BME280;11799;47.740;-3.390;2023-04-15T01:30:12;101413.06;;;7.29;100.00
23261;BME280;11799;47.740;-3.390;2023-04-15T01:32:38;101411.44;;;7.26;100.00
23261;BME280;11799;47.740;-3.390;2023-04-15T01:35:03;101416.69;;;7.26;100.00
23261;BME280;11799;47.740;-3.390;2023-04-15T01:37:29;101409.06;;;7.22;100.00
23261;BME280;11799;47.740;-3.390;2023-04-15T01:39:55;101419.41;;;7.25;100.00
23261;BME280;11799;47.740;-3.390;2023-04-15T01:42:22;101418.56;;;7.24;100.00
23261;BME280;11799;47.740;-3.390;2023-04-15T01:44:48;101420.34;;;7.24;100.00
23261;BME280;11799;47.740;-3.390;2023-04-15T01:47:13;101418.66;;;7.23;100.00
23261;BME280;11799;47.740;-3.390;2023-04-15T01:49:40;101430.84;;;7.24;100.00
23261;BME280;11799;47.740;-3.390;2023-04-15T01:52:07;101428.31;;;7.22;100.00
23261;BME280;11799;47.740;-3.390;2023-04-15T01:54:33;101431.09;;;7.19;100.00
23261;BME280;11799;47.740;-3.390;2023-04-15T01:56:58;101435.50;;;7.19;100.00
23261;BME280;11799;47.740;-3.390;2023-04-15T01:59:24;101439.13;;;7.16;100.00
23261;BME280;11799;47.740;-3.390;2023-04-15T02:01:50;101439.06;;;7.18;100.00
23261;BME280;11799;47.740;-3.390;2023-04-15T02:04:16;101437.53;;;7.14;100.00
23261;BME280;11799;47.740;-3.390;2023-04-15T02:06:42;101448.88;;;7.14;100.00
23261;BME280;11799;47.740;-3.390;2023-04-15T02:09:09;101444.41;;;7.16;100.00
23261;BME280;11799;47.740;-3.390;2023-04-15T02:11:35;101451.50;;;7.14;100.00
23261;BME280;11799;47.740;-3.390;2023-04-15T02:14:03;101454.97;;;7.15;100.00
23261;BME280;11799;47.740;-3.390;2023-04-15T02:16:30;101461.16;;;7.14;100.00
23261;BME280;11799;47.740;-3.390;2023-04-15T02:18:56;101455.16;;;7.12;100.00
23261;BME280;11799;47.740;-3.390;2023-04-15T02:21:21;101464.72;;;7.13;100.00
23261;BME280;11799;47.740;-3.390;2023-04-15T02:23:47;101465.66;;;7.12;100.00
23261;BME280;11799;47.740;-3.390;2023-04-15T02:26:13;101477.78;;;7.14;100.00
23261;BME280;11799;47.740;-3.390;2023-04-15T02:28:39;101477.78;;;7.14;100.00
23261;BME280;11799;47.740;-3.390;2023-04-15T02:31:06;101483.34;;;7.08;100.00
23261;BME280;11799;47.740;-3.390;2023-04-15T02:33:32;101484.88;;;7.12;100.00
23261;BME280;11799;47.740;-3.390;2023-04-15T02:35:59;101486.66;;;7.12;100.00
23261;BME280;11799;47.740;-3.390;2023-04-15T02:38:25;101483.19;;;7.11;100.00
23261;BME280;11799;47.740;-3.390;2023-04-15T02:40:51;101495.38;;;7.12;100.00
23261;BME280;11799;47.740;-3.390;2023-04-15T02:43:16;101497.25;;;7.10;100.00
23261;BME280;11799;47.740;-3.390;2023-04-15T02:45:43;101484.19;;;7.09;100.00
23261;BME280;11799;47.740;-3.390;2023-04-15T02:48:09;101486.91;;;7.07;100.00
23261;BME280;11799;47.740;-3.390;2023-04-15T02:50:35;101477.25;;;7.08;100.00
23261;BME280;11799;47.740;-3.390;2023-04-15T02:53:03;101486.75;;;7.10;100.00
23261;BME280;11799;47.740;-3.390;2023-04-15T02:55:30;101490.38;;;7.08;100.00
23261;BME280;11799;47.740;-3.390;2023-04-15T02:57:55;101495.78;;;7.05;100.00
23261;BME280;11799;47.740;-3.390;2023-04-15T03:00:23;101504.44;;;7.07;100.00
23261;BME280;11799;47.740;-3.390;2023-04-15T03:02:50;101506.28;;;7.05;100.00
23261;BME280;11799;47.740;-3.390;2023-04-15T03:05:21;101506.28;;;7.05;100.00
23261;BME280;11799;47.740;-3.390;2023-04-15T03:07:50;101504.59;;;7.04;100.00
23261;BME280;11799;47.740;-3.390;2023-04-15T03:10:17;101517.66;;;7.05;100.00
23261;BME280;11799;47.740;-3.390;2023-04-15T03:12:42;101522.81;;;7.07;100.00
23261;BME280;11799;47.740;-3.390;2023-04-15T03:15:12;101518.66;;;7.03;100.00
23261;BME280;11799;47.740;-3.390;2023-04-15T03:17:43;101535.19;;;7.05;100.00
23261;BME280;11799;47.740;-3.390;2023-04-15T03:20:08;101531.72;;;7.04;100.00
23261;BME280;11799;47.740;-3.390;2023-04-15T03:22:34;101535.34;;;7.02;100.00
23261;BME280;11799;47.740;-3.390;2023-04-15T03:25:01;101535.25;;;7.03;100.00
23261;BME280;11799;47.740;-3.390;2023-04-15T03:27:26;101533.41;;;7.05;100.00
23261;BME280;11799;47.740;-3.390;2023-04-15T03:29:55;101532.41;;;7.08;100.00
23261;BME280;11799;47.740;-3.390;2023-04-15T03:32:23;101538.25;;;7.13;100.00
23261;BME280;11799;47.740;-3.390;2023-04-15T03:34:48;101543.53;;;7.13;100.00
23261;BME280;11799;47.740;-3.390;2023-04-15T03:37:14;101539.34;;;7.09;100.00
23261;BME280;11799;47.740;-3.390;2023-04-15T03:39:40;101541.91;;;7.10;100.00
23261;BME280;11799;47.740;-3.390;2023-04-15T03:42:06;101543.53;;;7.13;100.00
23261;BME280;11799;47.740;-3.390;2023-04-15T03:44:31;101531.31;;;7.12;100.00
23261;BME280;11799;47.740;-3.390;2023-04-15T03:46:57;101534.94;;;7.09;100.00
23261;BME280;11799;47.740;-3.390;2023-04-15T03:49:22;101544.69;;;7.07;100.00
23261;BME280;11799;47.740;-3.390;2023-04-15T03:51:48;101551.72;;;7.07;100.00
23261;BME280;11799;47.740;-3.390;2023-04-15T03:54:14;101558.59;;;7.09;100.00
23261;BME280;11799;47.740;-3.390;2023-04-15T03:56:40;101562.22;;;7.07;100.00
23261;BME280;11799;47.740;-3.390;2023-04-15T03:59:06;101558.81;;;7.05;100.00
23261;BME280;11799;47.740;-3.390;2023-04-15T04:01:31;101551.78;;;7.05;100.00
23261;BME280;11799;47.740;-3.390;2023-04-15T04:03:57;101552.72;;;7.04;100.00
23261;BME280;11799;47.740;-3.390;2023-04-15T04:06:23;101565.00;;;7.04;100.00
23261;BME280;11799;47.740;-3.390;2023-04-15T04:08:48;101559.59;;;7.07;100.00
23261;BME280;11799;47.740;-3.390;2023-04-15T04:11:14;101556.03;;;7.08;100.00
23261;BME280;11799;47.740;-3.390;2023-04-15T04:13:39;101577.03;;;7.08;100.00
23261;BME280;11799;47.740;-3.390;2023-04-15T04:16:05;101573.81;;;7.03;100.00
23261;BME280;11799;47.740;-3.390;2023-04-15T04:18:31;101570.41;;;7.01;100.00
23261;BME280;11799;47.740;-3.390;2023-04-15T04:20:57;101572.09;;;7.02;100.00
23261;BME280;11799;47.740;-3.390;2023-04-15T04:23:23;101571.34;;;7.00;100.00
23261;BME280;11799;47.740;-3.390;2023-04-15T04:25:48;101570.47;;;6.99;100.00
23261;BME280;11799;47.740;-3.390;2023-04-15T04:28:14;101579.28;;;6.98;100.00
23261;BME280;11799;47.740;-3.390;2023-04-15T04:30:39;101576.59;;;7.00;100.00
23261;BME280;11799;47.740;-3.390;2023-04-15T04:33:06;101579.22;;;7.00;100.00
23261;BME280;11799;47.740;-3.390;2023-04-15T04:35:32;101576.50;;;7.01;100.00
23261;BME280;11799;47.740;-3.390;2023-04-15T04:38:00;101584.38;;;7.01;100.00
23261;BME280;11799;47.740;-3.390;2023-04-15T04:40:25;101582.75;;;6.99;100.00
23261;BME280;11799;47.740;-3.390;2023-04-15T04:42:52;101595.13;;;6.96;100.00
23261;BME280;11799;47.740;-3.390;2023-04-15T04:45:19;101593.28;;;6.99;100.00
23261;BME280;11799;47.740;-3.390;2023-04-15T04:47:44;101602.78;;;7.01;100.00
23261;BME280;11799;47.740;-3.390;2023-04-15T04:50:11;101596.75;;;6.99;100.00
23261;BME280;11799;47.740;-3.390;2023-04-15T04:52:37;101607.31;;;6.97;100.00
23261;BME280;11799;47.740;-3.390;2023-04-15T04:55:03;101609.81;;;7.01;100.00
23261;BME280;11799;47.740;-3.390;2023-04-15T04:57:28;101609.03;;;6.99;100.00
23261;BME280;11799;47.740;-3.390;2023-04-15T04:59:54;101604.69;;;6.97;100.00
23261;BME280;11799;47.740;-3.390;2023-04-15T05:02:19;101624.56;;;7.03;100.00
23261;BME280;11799;47.740;-3.390;2023-04-15T05:04:45;101622.94;;;7.01;100.00
23261;BME280;11799;47.740;-3.390;2023-04-15T05:07:11;101624.63;;;7.02;100.00
23261;BME280;11799;47.740;-3.390;2023-04-15T05:09:36;101628.19;;;7.01;100.00
23261;BME280;11799;47.740;-3.390;2023-04-15T05:12:05;101643.00;;;7.02;100.00
23261;BME280;11799;47.740;-3.390;2023-04-15T05:14:31;101642.16;;;7.01;100.00
23261;BME280;11799;47.740;-3.390;2023-04-15T05:16:56;101647.50;;;7.00;100.00
23261;BME280;11799;47.740;-3.390;2023-04-15T05:19:22;101649.13;;;7.02;100.00
23261;BME280;11799;47.740;-3.390;2023-04-15T05:21:47;101658.00;;;7.00;100.00
23261;BME280;11799;47.740;-3.390;2023-04-15T05:24:13;101664.03;;;7.02;100.00
23261;BME280;11799;47.740;-3.390;2023-04-15T05:26:38;101658.69;;;7.03;100.00
23261;BME280;11799;47.740;-3.390;2023-04-15T05:29:04;101657.78;;;7.04;100.00
23261;BME280;11799;47.740;-3.390;2023-04-15T05:31:30;101667.44;;;7.04;100.00
23261;BME280;11799;47.740;-3.390;2023-04-15T05:33:55;101669.06;;;7.06;100.00
23261;BME280;11799;47.740;-3.390;2023-04-15T05:36:21;101676.94;;;7.06;100.00
23261;BME280;11799;47.740;-3.390;2023-04-15T05:38:46;101675.22;;;7.05;100.00
23261;BME280;11799;47.740;-3.390;2023-04-15T05:41:12;101682.09;;;7.08;100.00
23261;BME280;11799;47.740;-3.390;2023-04-15T05:43:40;101684.66;;;7.09;100.00
23261;BME280;11799;47.740;-3.390;2023-04-15T05:46:05;101693.38;;;7.10;100.00
23261;BME280;11799;47.740;-3.390;2023-04-15T05:48:31;101694.25;;;7.10;100.00
23261;BME280;11799;47.740;-3.390;2023-04-15T05:50:57;101695.88;;;7.13;100.00
23261;BME280;11799;47.740;-3.390;2023-04-15T05:53:22;101702.81;;;7.14;100.00
23261;BME280;11799;47.740;-3.390;2023-04-15T05:55:48;101705.44;;;7.14;100.00
23261;BME280;11799;47.740;-3.390;2023-04-15T05:58:13;101713.94;;;7.19;100.00
23261;BME280;11799;47.740;-3.390;2023-04-15T06:00:39;101714.72;;;7.21;100.00
23261;BME280;11799;47.740;-3.390;2023-04-15T06:03:04;101716.44;;;7.22;100.00
23261;BME280;11799;47.740;-3.390;2023-04-15T06:05:30;101722.38;;;7.25;100.00
23261;BME280;11799;47.740;-3.390;2023-04-15T06:07:56;101731.88;;;7.28;100.00
23261;BME280;11799;47.740;-3.390;2023-04-15T06:10:21;101728.19;;;7.32;100.00
23261;BME280;11799;47.740;-3.390;2023-04-15T06:12:47;101731.59;;;7.34;100.00
23261;BME280;11799;47.740;-3.390;2023-04-15T06:15:12;101735.78;;;7.38;100.00
23261;BME280;11799;47.740;-3.390;2023-04-15T06:17:38;101739.16;;;7.40;100.00
23261;BME280;11799;47.740;-3.390;2023-04-15T06:20:04;101737.25;;;7.44;100.00
23261;BME280;11799;47.740;-3.390;2023-04-15T06:22:29;101747.59;;;7.47;100.00
23261;BME280;11799;47.740;-3.390;2023-04-15T06:24:55;101755.22;;;7.51;100.00
23261;BME280;11799;47.740;-3.390;2023-04-15T06:27:21;101755.84;;;7.56;100.00
23261;BME280;11799;47.740;-3.390;2023-04-15T06:29:47;101761.81;;;7.60;100.00
23261;BME280;11799;47.740;-3.390;2023-04-15T06:32:13;101763.34;;;7.64;100.00
23261;BME280;11799;47.740;-3.390;2023-04-15T06:34:38;101759.56;;;7.70;100.00
23261;BME280;11799;47.740;-3.390;2023-04-15T06:37:04;101764.75;;;7.71;100.00
23261;BME280;11799;47.740;-3.390;2023-04-15T06:39:29;101769.00;;;7.74;100.00
23261;BME280;11799;47.740;-3.390;2023-04-15T06:41:55;101774.03;;;7.78;100.00
23261;BME280;11799;47.740;-3.390;2023-04-15T06:44:21;101770.38;;;7.81;100.00
23261;BME280;11799;47.740;-3.390;2023-04-15T06:46:46;101770.22;;;7.84;100.00
23261;BME280;11799;47.740;-3.390;2023-04-15T06:49:12;101783.06;;;7.90;100.00
23261;BME280;11799;47.740;-3.390;2023-04-15T06:51:38;101780.28;;;7.93;100.00
23261;BME280;11799;47.740;-3.390;2023-04-15T06:54:04;101774.94;;;7.94;100.00
23261;BME280;11799;47.740;-3.390;2023-04-15T06:56:33;101777.19;;;8.02;100.00
23261;BME280;11799;47.740;-3.390;2023-04-15T06:58:59;101783.97;;;8.06;100.00
23261;BME280;11799;47.740;-3.390;2023-04-15T07:01:25;101789.75;;;8.13;100.00
23261;BME280;11799;47.740;-3.390;2023-04-15T07:03:50;101789.44;;;8.19;100.00
23261;BME280;11799;47.740;-3.390;2023-04-15T07:06:16;101793.53;;;8.24;100.00
23261;BME280;11799;47.740;-3.390;2023-04-15T07:08:42;101794.84;;;8.33;100.00
23261;BME280;11799;47.740;-3.390;2023-04-15T07:11:07;101797.16;;;8.39;100.00
23261;BME280;11799;47.740;-3.390;2023-04-15T07:13:33;101803.81;;;8.46;100.00
23261;BME280;11799;47.740;-3.390;2023-04-15T07:15:59;101801.69;;;8.53;100.00
23261;BME280;11799;47.740;-3.390;2023-04-15T07:18:24;101810.88;;;8.62;100.00
23261;BME280;11799;47.740;-3.390;2023-04-15T07:20:50;101813.84;;;8.71;100.00
23261;BME280;11799;47.740;-3.390;2023-04-15T07:23:15;101821.09;;;8.83;100.00
23261;BME280;11799;47.740;-3.390;2023-04-15T07:25:41;101828.31;;;8.96;100.00
23261;BME280;11799;47.740;-3.390;2023-04-15T07:28:07;101821.34;;;9.10;100.00
23261;BME280;11799;47.740;-3.390;2023-04-15T07:30:32;101829.13;;;9.27;100.00
23261;BME280;11799;47.740;-3.390;2023-04-15T07:32:59;101827.25;;;9.45;100.00
23261;BME280;11799;47.740;-3.390;2023-04-15T07:35:24;101836.84;;;9.62;100.00
23261;BME280;11799;47.740;-3.390;2023-04-15T07:37:50;101829.84;;;9.77;100.00
23261;BME280;11799;47.740;-3.390;2023-04-15T07:40:16;101832.50;;;9.91;100.00
23261;BME280;11799;47.740;-3.390;2023-04-15T07:42:42;101839.31;;;10.09;100.00
23261;BME280;11799;47.740;-3.390;2023-04-15T07:45:08;101838.63;;;10.21;100.00
23261;BME280;11799;47.740;-3.390;2023-04-15T07:47:34;101841.94;;;10.39;100.00
23261;BME280;11799;47.740;-3.390;2023-04-15T07:50:00;101837.69;;;10.51;100.00
23261;BME280;11799;47.740;-3.390;2023-04-15T07:52:26;101844.66;;;10.66;100.00
23261;BME280;11799;47.740;-3.390;2023-04-15T07:54:52;101850.81;;;10.81;100.00
23261;BME280;11799;47.740;-3.390;2023-04-15T07:57:18;101857.03;;;10.94;100.00
23261;BME280;11799;47.740;-3.390;2023-04-15T07:59:43;101858.88;;;11.06;100.00
23261;BME280;11799;47.740;-3.390;2023-04-15T08:02:10;101860.81;;;11.17;100.00
23261;BME280;11799;47.740;-3.390;2023-04-15T08:04:36;101854.56;;;11.32;100.00
23261;BME280;11799;47.740;-3.390;2023-04-15T08:07:02;101867.41;;;11.38;100.00
23261;BME280;11799;47.740;-3.390;2023-04-15T08:09:28;101853.47;;;11.49;100.00
23261;BME280;11799;47.740;-3.390;2023-04-15T08:11:54;101857.53;;;11.67;100.00
23261;BME280;11799;47.740;-3.390;2023-04-15T08:14:21;101869.16;;;11.79;100.00
23261;BME280;11799;47.740;-3.390;2023-04-15T08:16:47;101864.28;;;11.85;100.00
23261;BME280;11799;47.740;-3.390;2023-04-15T08:19:12;101862.00;;;11.94;100.00
23261;BME280;11799;47.740;-3.390;2023-04-15T08:21:38;101863.81;;;12.06;100.00
23261;BME280;11799;47.740;-3.390;2023-04-15T08:24:05;101867.00;;;12.11;100.00
23261;BME280;11799;47.740;-3.390;2023-04-15T08:26:31;101862.00;;;12.19;100.00
23261;BME280;11799;47.740;-3.390;2023-04-15T08:28:56;101863.50;;;12.23;100.00
23261;BME280;11799;47.740;-3.390;2023-04-15T08:31:22;101871.78;;;12.31;100.00
23261;BME280;11799;47.740;-3.390;2023-04-15T08:33:48;101868.81;;;12.36;100.00
23261;BME280;11799;47.740;-3.390;2023-04-15T08:36:16;101872.63;;;12.44;100.00
23261;BME280;11799;47.740;-3.390;2023-04-15T08:38:43;101881.31;;;12.46;100.00
23261;BME280;11799;47.740;-3.390;2023-04-15T08:41:20;101879.41;;;12.48;100.00
23261;BME280;11799;47.740;-3.390;2023-04-15T08:43:59;101892.25;;;12.54;100.00
23261;BME280;11799;47.740;-3.390;2023-04-15T08:46:25;101886.63;;;12.59;100.00
23261;BME280;11799;47.740;-3.390;2023-04-15T08:48:51;101896.47;;;12.70;100.00
23261;BME280;11799;47.740;-3.390;2023-04-15T08:51:19;101892.63;;;12.74;100.00
23261;BME280;11799;47.740;-3.390;2023-04-15T08:53:45;101884.25;;;12.80;100.00
23261;BME280;11799;47.740;-3.390;2023-04-15T08:56:13;101893.91;;;12.81;100.00
23261;BME280;11799;47.740;-3.390;2023-04-15T08:58:40;101891.78;;;12.86;100.00
23261;BME280;11799;47.740;-3.390;2023-04-15T09:01:05;101894.94;;;12.91;100.00
23261;BME280;11799;47.740;-3.390;2023-04-15T09:03:32;101900.78;;;12.96;100.00
23261;BME280;11799;47.740;-3.390;2023-04-15T09:05:59;101891.88;;;12.97;100.00
23261;BME280;11799;47.740;-3.390;2023-04-15T09:08:25;101884.13;;;13.07;100.00
23261;BME280;11799;47.740;-3.390;2023-04-15T09:10:50;101898.34;;;13.06;100.00
23261;BME280;11799;47.740;-3.390;2023-04-15T09:13:17;101903.41;;;13.09;100.00
23261;BME280;11799;47.740;-3.390;2023-04-15T09:15:42;101890.56;;;13.15;100.00
23261;BME280;11799;47.740;-3.390;2023-04-15T09:18:10;101909.84;;;13.30;100.00
23261;BME280;11799;47.740;-3.390;2023-04-15T09:20:40;101908.66;;;13.34;100.00
23261;BME280;11799;47.740;-3.390;2023-04-15T09:23:12;101909.41;;;13.36;100.00
23261;BME280;11799;47.740;-3.390;2023-04-15T09:25:39;101911.94;;;13.38;100.00
23261;BME280;11799;47.740;-3.390;2023-04-15T09:28:07;101928.28;;;13.44;100.00
23261;BME280;11799;47.740;-3.390;2023-04-15T09:30:33;101922.94;;;13.57;100.00
23261;BME280;11799;47.740;-3.390;2023-04-15T09:33:00;101932.69;;;13.57;100.00
23261;BME280;11799;47.740;-3.390;2023-04-15T09:35:33;101936.72;;;13.62;100.00
23261;BME280;11799;47.740;-3.390;2023-04-15T09:38:02;101945.06;;;13.69;100.00
23261;BME280;11799;47.740;-3.390;2023-04-15T09:40:41;101944.53;;;13.76;100.00
23261;BME280;11799;47.740;-3.390;2023-04-15T09:43:08;101947.09;;;13.89;100.00
23261;BME280;11799;47.740;-3.390;2023-04-15T09:45:34;101947.59;;;13.94;100.00
23261;BME280;11799;47.740;-3.390;2023-04-15T09:48:21;101941.94;;;13.99;100.00
23261;BME280;11799;47.740;-3.390;2023-04-15T09:50:48;101953.59;;;14.09;100.00
23261;BME280;11799;47.740;-3.390;2023-04-15T09:53:21;101952.06;;;14.17;100.00
23261;BME280;11799;47.740;-3.390;2023-04-15T09:55:52;101959.22;;;14.28;100.00
23261;BME280;11799;47.740;-3.390;2023-04-15T09:58:23;101966.97;;;14.31;100.00
23261;BME280;11799;47.740;-3.390;2023-04-15T10:00:50;101971.00;;;14.48;92.61
23261;BME280;11799;47.740;-3.390;2023-04-15T10:03:21;101970.78;;;14.51;96.06
23261;BME280;11799;47.740;-3.390;2023-04-15T10:05:49;101967.88;;;14.54;95.43
23261;BME280;11799;47.740;-3.390;2023-04-15T10:08:17;101969.00;;;14.63;100.00
23261;BME280;11799;47.740;-3.390;2023-04-15T10:10:45;101972.28;;;14.66;95.93
23261;BME280;11799;47.740;-3.390;2023-04-15T10:13:16;101965.53;;;14.73;95.24
23261;BME280;11799;47.740;-3.390;2023-04-15T10:15:43;101971.72;;;14.85;96.72
23261;BME280;11799;47.740;-3.390;2023-04-15T10:18:15;101968.44;;;14.93;92.04
23261;BME280;11799;47.740;-3.390;2023-04-15T10:20:41;101967.75;;;15.02;93.38
23261;BME280;11799;47.740;-3.390;2023-04-15T10:23:08;101970.00;;;15.06;87.76
23261;BME280;11799;47.740;-3.390;2023-04-15T10:25:34;101979.81;;;15.06;87.84
23261;BME280;11799;47.740;-3.390;2023-04-15T10:28:01;101978.84;;;15.07;90.83
23261;BME280;11799;47.740;-3.390;2023-04-15T10:30:27;101984.41;;;15.04;90.79
23261;BME280;11799;47.740;-3.390;2023-04-15T10:32:54;101986.00;;;14.95;87.33
23261;BME280;11799;47.740;-3.390;2023-04-15T10:35:21;101988.41;;;14.87;97.31
23261;BME280;11799;47.740;-3.390;2023-04-15T10:37:47;101975.72;;;14.91;90.23
23261;BME280;11799;47.740;-3.390;2023-04-15T10:40:28;101984.53;;;14.91;93.21
23261;BME280;11799;47.740;-3.390;2023-04-15T10:42:59;101987.81;;;14.95;99.68
23261;BME280;11799;47.740;-3.390;2023-04-15T10:45:35;101985.13;;;14.95;88.79
23261;BME280;11799;47.740;-3.390;2023-04-15T10:48:03;101988.50;;;14.85;88.47
23261;BME280;11799;47.740;-3.390;2023-04-15T10:50:30;101987.28;;;14.78;84.71
23261;BME280;11799;47.740;-3.390;2023-04-15T10:52:56;101988.84;;;14.70;90.97
23261;BME280;11799;47.740;-3.390;2023-04-15T10:55:24;101993.91;;;14.73;91.33
23261;BME280;11799;47.740;-3.390;2023-04-15T10:57:57;101988.84;;;14.70;87.69
23261;BME280;11799;47.740;-3.390;2023-04-15T11:00:28;101996.44;;;14.63;89.83
23261;BME280;11799;47.740;-3.390;2023-04-15T11:03:06;102003.28;;;14.54;90.25
23261;BME280;11799;47.740;-3.390;2023-04-15T11:08:07;101994.19;;;14.46;97.23
23261;BME280;11799;47.740;-3.390;2023-04-15T11:13:01;101995.06;;;14.46;100.00
23261;BME280;11799;47.740;-3.390;2023-04-15T11:20:41;101976.00;;;14.64;86.99
23261;BME280;11799;47.740;-3.390;2023-04-15T11:23:07;101977.59;;;14.66;93.53
23261;BME280;11799;47.740;-3.390;2023-04-15T11:25:34;101978.44;;;14.67;86.14
23261;BME280;11799;47.740;-3.390;2023-04-15T11:28:02;101984.22;;;14.61;90.38
23261;BME280;11799;47.740;-3.390;2023-04-15T11:30:30;101985.53;;;14.55;89.03
23261;BME280;11799;47.740;-3.390;2023-04-15T11:32:58;101988.41;;;14.52;88.97
23261;BME280;11799;47.740;-3.390;2023-04-15T11:35:24;101988.03;;;14.45;92.47
23261;BME280;11799;47.740;-3.390;2023-04-15T11:37:50;101989.63;;;14.48;95.78
23261;BME280;11799;47.740;-3.390;2023-04-15T11:40:21;101988.31;;;14.53;99.89
23261;BME280;11799;47.740;-3.390;2023-04-15T11:45:31;101987.50;;;14.64;96.05
23261;BME280;11799;47.740;-3.390;2023-04-15T11:48:10;101995.22;;;14.67;98.25
23261;BME280;11799;47.740;-3.390;2023-04-15T11:50:37;101990.19;;;14.75;95.82
23261;BME280;11799;47.740;-3.390;2023-04-15T11:53:11;101992.84;;;14.75;88.37
23261;BME280;11799;47.740;-3.390;2023-04-15T11:55:49;101991.88;;;14.76;81.44
23261;BME280;11799;47.740;-3.390;2023-04-15T11:58:20;101997.06;;;14.78;83.68
23261;BME280;11799;47.740;-3.390;2023-04-15T12:03:16;101989.84;;;14.91;76.86
23261;BME280;11799;47.740;-3.390;2023-04-15T12:06:05;102000.38;;;15.15;86.18
23261;BME280;11799;47.740;-3.390;2023-04-15T12:09:03;102002.06;;;15.16;83.07
23261;BME280;11799;47.740;-3.390;2023-04-15T12:11:35;102004.00;;;15.25;84.27
23261;BME280;11799;47.740;-3.390;2023-04-15T12:14:06;102007.16;;;15.30;76.90
23261;BME280;11799;47.740;-3.390;2023-04-15T12:16:34;102002.69;;;15.42;81.68
23261;BME280;11799;47.740;-3.390;2023-04-15T12:19:03;102007.75;;;15.45;75.01
23261;BME280;11799;47.740;-3.390;2023-04-15T12:21:33;102001.59;;;15.56;72.26
23261;BME280;11799;47.740;-3.390;2023-04-15T12:24:10;101999.63;;;15.69;88.32
23261;BME280;11799;47.740;-3.390;2023-04-15T12:26:45;101998.16;;;15.76;75.12
23261;BME280;11799;47.740;-3.390;2023-04-15T12:29:13;101991.88;;;15.77;72.44
23261;BME280;11799;47.740;-3.390;2023-04-15T12:31:52;102005.75;;;15.92;79.34
23261;BME280;11799;47.740;-3.390;2023-04-15T12:34:27;101999.31;;;16.05;72.81
23261;BME280;11799;47.740;-3.390;2023-04-15T12:36:53;101993.41;;;16.23;63.11
23261;BME280;11799;47.740;-3.390;2023-04-15T12:39:23;102003.19;;;16.33;73.25
23261;BME280;11799;47.740;-3.390;2023-04-15T12:41:50;102004.81;;;16.45;70.17
23261;BME280;11799;47.740;-3.390;2023-04-15T12:44:15;102000.03;;;16.60;79.67
23261;BME280;11799;47.740;-3.390;2023-04-15T12:46:41;102004.78;;;16.57;73.55
23261;BME280;11799;47.740;-3.390;2023-04-15T12:49:07;102014.91;;;16.42;75.49
23261;BME280;11799;47.740;-3.390;2023-04-15T12:51:33;102003.00;;;16.46;71.97
23261;BME280;11799;47.740;-3.390;2023-04-15T12:53:59;102014.72;;;16.55;63.00